createdAt,value
2018-06-05T00:00:08.311Z,99.90
2018-06-05T00:02:50.280Z,99.90
2018-06-05T00:05:27.865Z,99.90
2018-06-05T00:08:23.788Z,99.90
2018-06-05T00:11:37.642Z,99.90
2018-06-05T00:14:29.258Z,99.90
2018-06-05T00:17:06.171Z,99.90
2018-06-05T00:19:36.767Z,99.90
2018-06-05T00:22:25.243Z,99.90
2018-06-05T00:25:02.284Z,99.90
2018-06-05T00:27:37.932Z,99.90
2018-06-05T00:30:22.638Z,99.90
2018-06-05T00:33:03.058Z,99.90
2018-06-05T00:35:34.470Z,99.90
2018-06-05T00:38:12.463Z,99.90
2018-06-05T00:40:44.022Z,99.90
2018-06-05T00:43:21.419Z,99.90
2018-06-05T00:45:59.103Z,99.90
2018-06-05T00:48:35.807Z,99.90
2018-06-05T00:54:19.673Z,99.90
2018-06-05T00:56:52.428Z,99.90
2018-06-05T00:59:24.262Z,99.90
2018-06-05T01:01:54.339Z,99.90
2018-06-05T01:04:48.583Z,99.90
2018-06-05T01:07:28.162Z,99.90
2018-06-05T01:10:18.471Z,99.90
2018-06-05T01:15:39.258Z,99.90
2018-06-05T01:20:44.301Z,99.90
2018-06-05T01:23:28.168Z,99.90
2018-06-05T01:26:10.888Z,99.90
2018-06-05T01:28:48.227Z,99.90
2018-06-05T01:31:27.857Z,99.90
2018-06-05T01:34:07.408Z,99.90
2018-06-05T01:36:46.410Z,99.90
2018-06-05T01:39:20.256Z,99.90
2018-06-05T01:44:36.495Z,99.90
2018-06-05T01:47:13.739Z,99.90
2018-06-05T01:50:05.266Z,99.90
2018-06-05T01:52:44.333Z,99.90
2018-06-05T01:55:40.312Z,99.90
2018-06-05T01:59:00.458Z,99.90
2018-06-05T02:01:34.643Z,99.90
2018-06-05T02:04:05.010Z,99.90
2018-06-05T02:06:35.638Z,99.90
2018-06-05T02:09:13.583Z,99.90
2018-06-05T02:11:46.095Z,99.90
2018-06-05T02:14:20.757Z,99.90
2018-06-05T02:17:05.338Z,99.90
2018-06-05T02:19:41.673Z,99.90
2018-06-05T02:22:22.400Z,99.90
2018-06-05T02:24:56.766Z,99.90
2018-06-05T02:27:46.154Z,99.90
2018-06-05T02:30:21.611Z,99.90
2018-06-05T02:33:02.312Z,99.90
2018-06-05T02:35:53.471Z,99.90
2018-06-05T02:42:11.640Z,99.90
2018-06-05T02:44:53.776Z,99.90
2018-06-05T02:47:44.531Z,99.90
2018-06-05T02:50:33.393Z,99.90
2018-06-05T02:53:09.955Z,99.90
2018-06-05T02:55:48.222Z,99.90
2018-06-05T02:58:32.407Z,99.90
2018-06-05T03:01:08.759Z,99.90
2018-06-05T03:03:42.399Z,99.90
2018-06-05T03:06:14.135Z,99.90
2018-06-05T03:08:49.655Z,99.90
2018-06-05T03:13:50.663Z,99.90
2018-06-05T03:16:21.279Z,99.90
2018-06-05T03:18:52.765Z,99.90
2018-06-05T03:21:23.525Z,99.90
2018-06-05T03:23:59.814Z,99.90
2018-06-05T03:26:30.835Z,99.90
2018-06-05T03:29:02.663Z,99.90
2018-06-05T03:31:37.951Z,99.90
2018-06-05T03:34:15.521Z,99.90
2018-06-05T03:36:46.499Z,99.90
2018-06-05T03:39:20.846Z,99.90
2018-06-05T03:41:54.497Z,99.90
2018-06-05T03:44:29.317Z,99.90
2018-06-05T03:47:07.743Z,99.90
2018-06-05T03:49:57.069Z,99.90
2018-06-05T03:52:31.237Z,99.90
2018-06-05T03:55:20.124Z,99.90
2018-06-05T03:57:50.750Z,99.90
2018-06-05T04:00:24.762Z,99.90
2018-06-05T04:02:55.265Z,99.90
2018-06-05T04:08:03.048Z,99.90
2018-06-05T04:10:34.561Z,99.90
2018-06-05T04:13:19.936Z,99.90
2018-06-05T04:15:56.922Z,99.90
2018-06-05T04:18:31.610Z,99.90
2018-06-05T04:23:44.167Z,99.90
2018-06-05T04:26:16.898Z,99.90
2018-06-05T04:28:53.595Z,99.90
2018-06-05T04:31:25.175Z,99.90
2018-06-05T04:34:07.044Z,99.90
2018-06-05T04:39:17.953Z,99.90
2018-06-05T04:41:58.428Z,99.90
2018-06-05T04:44:42.694Z,99.90
2018-06-05T04:47:14.129Z,99.90
2018-06-05T04:49:45.755Z,99.90
2018-06-05T04:52:23.494Z,99.90
2018-06-05T04:54:54.079Z,99.90
2018-06-05T04:57:25.978Z,99.90
2018-06-05T04:59:57.413Z,99.90
2018-06-05T05:02:33.470Z,99.90
2018-06-05T05:05:07.502Z,99.90
2018-06-05T05:07:38.110Z,99.90
2018-06-05T05:10:15.213Z,99.90
2018-06-05T05:12:51.684Z,99.90
2018-06-05T05:15:33.043Z,99.90
2018-06-05T05:18:04.243Z,99.90
2018-06-05T05:20:43.129Z,99.90
2018-06-05T05:23:15.735Z,99.90
2018-06-05T05:25:51.691Z,99.90
2018-06-05T05:28:33.367Z,99.90
2018-06-05T05:31:03.950Z,99.90
2018-06-05T05:33:56.467Z,99.90
2018-06-05T05:36:27.175Z,99.80
2018-06-05T05:39:07.162Z,99.70
2018-06-05T05:41:42.561Z,99.90
2018-06-05T05:44:18.923Z,96.10
2018-06-05T05:46:50.536Z,94.90
2018-06-05T05:49:27.867Z,94.90
2018-06-05T05:52:04.038Z,94.60
2018-06-05T05:54:37.135Z,95.50
2018-06-05T05:57:12.422Z,97.40
2018-06-05T06:02:23.406Z,98.50
2018-06-05T06:04:53.938Z,97.70
2018-06-05T06:07:36.436Z,95.60
2018-06-05T06:10:13.791Z,92.70
2018-06-05T06:13:01.272Z,91.90
2018-06-05T06:15:37.484Z,93.40
2018-06-05T06:18:11.481Z,94.00
2018-06-05T06:20:47.617Z,95.10
2018-06-05T06:23:23.558Z,97.00
2018-06-05T06:26:03.602Z,98.20
2018-06-05T06:28:34.066Z,98.80
2018-06-05T06:31:10.022Z,99.80
2018-06-05T06:33:40.718Z,99.50
2018-06-05T06:36:11.661Z,99.90
2018-06-05T06:38:42.287Z,99.80
2018-06-05T06:41:18.738Z,99.70
2018-06-05T06:43:53.462Z,99.50
2018-06-05T06:46:27.415Z,98.70
2018-06-05T06:49:03.616Z,98.20
2018-06-05T06:51:46.742Z,97.80
2018-06-05T06:54:17.783Z,96.20
2018-06-05T06:56:56.512Z,95.80
2018-06-05T06:59:34.517Z,95.20
2018-06-05T07:02:12.291Z,93.60
2018-06-05T07:04:54.460Z,94.60
2018-06-05T07:07:44.534Z,94.50
2018-06-05T07:10:15.190Z,95.10
2018-06-05T07:15:17.791Z,93.00
2018-06-05T07:17:53.459Z,91.50
2018-06-05T07:20:25.966Z,91.00
2018-06-05T07:23:07.499Z,91.70
2018-06-05T07:25:43.845Z,92.20
2018-06-05T07:28:27.435Z,93.00
2018-06-05T07:31:01.903Z,92.30
2018-06-05T07:33:57.210Z,93.10
2018-06-05T07:36:38.827Z,93.30
2018-06-05T07:39:19.803Z,90.20
2018-06-05T07:41:52.361Z,86.10
2018-06-05T07:44:24.396Z,86.90
2018-06-05T07:46:56.728Z,84.20
2018-06-05T07:49:43.584Z,85.40
2018-06-05T07:52:14.243Z,88.70
2018-06-05T07:54:45.919Z,89.70
2018-06-05T07:57:19.612Z,89.10
2018-06-05T08:00:02.122Z,85.20
2018-06-05T08:02:34.543Z,80.10
2018-06-05T08:05:11.327Z,77.80
2018-06-05T08:07:42.601Z,78.40
2018-06-05T08:10:14.097Z,80.50
2018-06-05T08:12:51.750Z,83.00
2018-06-05T08:15:22.539Z,82.70
2018-06-05T08:17:53.115Z,79.20
2018-06-05T08:20:36.538Z,78.80
2018-06-05T08:23:08.871Z,73.60
2018-06-05T08:25:50.738Z,73.40
2018-06-05T08:28:21.367Z,72.60
2018-06-05T08:30:55.739Z,72.60
2018-06-05T08:33:38.446Z,68.40
2018-06-05T08:36:16.325Z,66.30
2018-06-05T08:38:47.253Z,62.50
2018-06-05T08:41:19.718Z,65.10
2018-06-05T08:44:04.355Z,66.00
2018-06-05T08:46:37.184Z,64.40
2018-06-05T08:49:09.116Z,60.90
2018-06-05T08:51:43.834Z,59.70
2018-06-05T08:54:36.783Z,59.70
2018-06-05T08:57:08.838Z,60.90
2018-06-05T08:59:39.989Z,61.20
2018-06-05T09:02:17.516Z,61.70
2018-06-05T09:04:56.298Z,61.90
2018-06-05T09:07:30.415Z,61.90
2018-06-05T09:10:05.069Z,63.20
2018-06-05T09:12:41.303Z,68.10
2018-06-05T09:15:22.610Z,69.10
2018-06-05T09:18:03.279Z,67.80
2018-06-05T09:20:34.659Z,63.00
2018-06-05T09:23:09.285Z,62.60
2018-06-05T09:25:40.934Z,63.40
2018-06-05T09:28:11.542Z,64.50
2018-06-05T09:30:42.252Z,65.60
2018-06-05T09:33:13.860Z,65.90
2018-06-05T09:36:02.538Z,66.50
2018-06-05T09:38:47.141Z,64.50
2018-06-05T09:41:20.488Z,65.60
2018-06-05T09:43:51.370Z,60.30
2018-06-05T09:46:25.111Z,60.10
2018-06-05T09:49:01.925Z,64.10
2018-06-05T09:51:52.824Z,63.00
2018-06-05T09:54:27.279Z,59.20
2018-06-05T09:57:16.932Z,63.30
2018-06-05T10:00:00.641Z,61.50
2018-06-05T10:02:36.180Z,64.60
2018-06-05T10:05:11.371Z,60.40
2018-06-05T10:07:47.619Z,59.20
2018-06-05T10:10:34.046Z,57.40
2018-06-05T10:13:14.630Z,61.20
2018-06-05T10:15:52.922Z,60.60
2018-06-05T10:18:33.403Z,62.30
2018-06-05T10:21:05.019Z,61.20
2018-06-05T10:23:38.992Z,59.20
2018-06-05T10:26:09.900Z,59.50
2018-06-05T10:28:53.415Z,59.00
2018-06-05T10:31:26.486Z,58.10
2018-06-05T10:34:01.647Z,58.40
2018-06-05T10:36:36.948Z,59.80
2018-06-05T10:39:10.034Z,59.40
2018-06-05T10:41:43.462Z,60.60
2018-06-05T10:44:27.957Z,57.00
2018-06-05T10:46:58.327Z,54.90
2018-06-05T10:49:29.727Z,56.50
2018-06-05T10:52:04.708Z,56.90
2018-06-05T10:54:37.301Z,55.00
2018-06-05T10:57:12.181Z,52.90
2018-06-05T10:59:43.592Z,51.80
2018-06-05T11:02:22.651Z,51.80
2018-06-05T11:04:58.899Z,51.50
2018-06-05T11:07:48.407Z,48.80
2018-06-05T11:10:22.228Z,47.60
2018-06-05T11:13:05.706Z,47.70
2018-06-05T11:15:36.338Z,47.70
2018-06-05T11:18:15.102Z,47.40
2018-06-05T11:20:46.802Z,45.20
2018-06-05T11:23:17.643Z,41.70
2018-06-05T11:25:48.311Z,45.30
2018-06-05T11:28:19.791Z,44.70
2018-06-05T11:30:51.686Z,44.30
2018-06-05T11:33:24.584Z,45.60
2018-06-05T11:35:56.333Z,43.60
2018-06-05T11:38:31.918Z,43.80
2018-06-05T11:41:02.606Z,42.00
2018-06-05T11:43:51.273Z,42.00
2018-06-05T11:46:33.111Z,40.10
2018-06-05T11:49:42.974Z,42.30
2018-06-05T11:52:16.774Z,40.00
2018-06-05T11:54:53.727Z,40.70
2018-06-05T11:57:33.195Z,37.00
2018-06-05T12:00:13.827Z,33.50
2018-06-05T12:02:50.942Z,34.30
2018-06-05T12:05:30.289Z,36.40
2018-06-05T12:10:34.588Z,34.60
2018-06-05T12:13:06.933Z,32.90
2018-06-05T12:15:46.367Z,30.70
2018-06-05T12:18:17.602Z,30.00
2018-06-05T12:20:54.455Z,30.20
2018-06-05T12:23:29.974Z,31.90
2018-06-05T12:26:04.800Z,33.70
2018-06-05T12:28:35.378Z,33.90
2018-06-05T12:33:36.014Z,33.80
2018-06-05T12:38:38.902Z,29.10
2018-06-05T12:41:14.910Z,28.50
2018-06-05T12:43:45.406Z,30.70
2018-06-05T12:46:22.888Z,33.40
2018-06-05T12:48:53.627Z,33.90
2018-06-05T12:53:57.273Z,31.70
2018-06-05T12:56:44.769Z,32.60
2018-06-05T12:59:32.389Z,31.60
2018-06-05T13:02:03.487Z,30.50
2018-06-05T13:04:39.291Z,32.80
2018-06-05T13:07:31.006Z,34.70
2018-06-05T13:10:04.536Z,35.80
2018-06-05T13:12:36.754Z,33.20
2018-06-05T13:15:12.119Z,30.60
2018-06-05T13:21:05.625Z,31.70
2018-06-05T13:23:41.948Z,31.50
2018-06-05T13:26:13.195Z,33.00
2018-06-05T13:28:47.805Z,33.70
2018-06-05T13:31:18.575Z,33.10
2018-06-05T13:33:58.130Z,29.60
2018-06-05T13:36:31.057Z,29.70
2018-06-05T13:39:16.974Z,32.20
2018-06-05T13:41:50.147Z,32.20
2018-06-05T13:44:20.553Z,30.50
2018-06-05T13:49:39.948Z,29.90
2018-06-05T13:52:12.320Z,28.60
2018-06-05T13:54:49.794Z,32.20
2018-06-05T13:57:38.346Z,34.70
2018-06-05T14:00:20.063Z,36.00
2018-06-05T14:02:51.235Z,35.60
2018-06-05T14:05:30.082Z,35.30
2018-06-05T14:08:10.147Z,36.40
2018-06-05T14:13:18.622Z,35.80
2018-06-05T14:15:53.245Z,33.20
2018-06-05T14:18:27.131Z,33.30
2018-06-05T14:21:00.964Z,33.00
2018-06-05T14:23:37.959Z,32.40
2018-06-05T14:26:11.868Z,33.70
2018-06-05T14:28:49.392Z,34.10
2018-06-05T14:31:23.165Z,35.20
2018-06-05T14:33:56.101Z,33.10
2018-06-05T14:36:27.783Z,35.40
2018-06-05T14:39:04.610Z,36.20
2018-06-05T14:41:40.932Z,35.10
2018-06-05T14:44:16.319Z,34.80
2018-06-05T14:46:55.043Z,34.70
2018-06-05T14:49:29.074Z,34.20
2018-06-05T14:52:06.196Z,32.40
2018-06-05T14:54:40.986Z,33.40
2018-06-05T14:57:22.658Z,35.70
2018-06-05T14:59:59.902Z,35.80
2018-06-05T15:02:39.325Z,34.00
2018-06-05T15:05:18.555Z,31.00
2018-06-05T15:07:58.279Z,29.60
2018-06-05T15:10:37.023Z,29.40
2018-06-05T15:13:12.076Z,30.60
2018-06-05T15:15:47.566Z,31.80
2018-06-05T15:18:25.111Z,30.60
2018-06-05T15:20:57.890Z,32.30
2018-06-05T15:23:36.962Z,30.90
2018-06-05T15:26:15.856Z,32.70
2018-06-05T15:28:48.249Z,31.50
2018-06-05T15:31:22.508Z,29.10
2018-06-05T15:33:56.380Z,25.60
2018-06-05T15:36:28.514Z,32.60
2018-06-05T15:39:03.793Z,36.60
2018-06-05T15:41:55.719Z,35.30
2018-06-05T15:44:38.713Z,33.00
2018-06-05T15:47:28.879Z,28.20
2018-06-05T15:50:07.515Z,27.20
2018-06-05T15:52:42.149Z,27.10
2018-06-05T15:55:14.539Z,25.90
2018-06-05T15:58:02.343Z,26.80
2018-06-05T16:00:37.229Z,25.90
2018-06-05T16:03:10.528Z,26.30
2018-06-05T16:05:44.650Z,27.00
2018-06-05T16:13:27.167Z,28.70
2018-06-05T16:16:00.524Z,28.90
2018-06-05T16:18:40.940Z,27.90
2018-06-05T16:21:22.989Z,28.70
2018-06-05T16:27:08.229Z,28.30
2018-06-05T16:29:47.187Z,30.00
2018-06-05T16:32:38.948Z,30.00
2018-06-05T16:35:10.349Z,31.40
2018-06-05T16:43:04.562Z,34.00
2018-06-05T16:45:45.273Z,35.00
2018-06-05T16:48:17.131Z,35.60
2018-06-05T16:50:48.286Z,37.90
2018-06-05T16:53:20.571Z,39.80
2018-06-05T16:55:54.960Z,41.00
2018-06-05T16:58:27.528Z,41.90
2018-06-05T17:01:06.082Z,42.40
2018-06-05T17:03:38.387Z,43.20
2018-06-05T17:06:13.903Z,43.10
2018-06-05T17:08:44.258Z,44.10
2018-06-05T17:11:16.474Z,45.50
2018-06-05T17:13:52.707Z,45.90
2018-06-05T17:16:23.142Z,46.00
2018-06-05T17:18:59.638Z,46.70
2018-06-05T17:21:40.990Z,47.50
2018-06-05T17:29:14.674Z,45.40
2018-06-05T17:31:47.669Z,43.80
2018-06-05T17:34:23.032Z,42.10
2018-06-05T17:39:30.318Z,41.90
2018-06-05T17:42:05.677Z,41.30
2018-06-05T17:44:39.333Z,40.80
2018-06-05T17:47:11.502Z,39.80
2018-06-05T17:49:47.706Z,39.80
2018-06-05T17:52:18.300Z,39.00
2018-06-05T17:54:51.204Z,39.20
2018-06-05T17:57:22.355Z,38.30
2018-06-05T17:59:54.404Z,38.30
2018-06-05T18:02:30.433Z,37.80
2018-06-05T18:05:11.682Z,38.00
2018-06-05T18:07:44.159Z,40.00
2018-06-05T18:10:20.683Z,39.90
2018-06-05T18:12:54.204Z,40.10
2018-06-05T18:15:28.825Z,41.40
2018-06-05T18:23:29.388Z,42.70
2018-06-05T18:26:04.077Z,44.20
2018-06-05T18:29:02.644Z,44.40
2018-06-05T18:31:41.101Z,45.40
2018-06-05T18:34:42.750Z,46.90
2018-06-05T18:37:14.889Z,48.30
2018-06-05T18:39:46.340Z,49.80
2018-06-05T18:42:20.982Z,51.40
2018-06-05T18:47:38.482Z,53.30
2018-06-05T18:50:19.138Z,54.70
2018-06-05T18:52:58.031Z,57.00
2018-06-05T18:55:42.944Z,57.70
2018-06-05T18:58:19.164Z,58.80
2018-06-05T19:00:51.556Z,60.20
2018-06-05T19:03:23.760Z,60.70
2018-06-05T19:06:23.050Z,60.70
2018-06-05T19:09:03.197Z,61.50
2018-06-05T19:11:38.309Z,62.60
2018-06-05T19:14:10.265Z,63.00
2018-06-05T19:17:00.383Z,64.80
2018-06-05T19:19:44.778Z,65.60
2018-06-05T19:22:43.437Z,66.00
2018-06-05T19:25:39.188Z,64.90
2018-06-05T19:28:18.303Z,67.00
2018-06-05T19:30:51.717Z,68.50
2018-06-05T19:33:24.140Z,69.00
2018-06-05T19:36:06.000Z,68.40
2018-06-05T19:38:41.924Z,68.70
2018-06-05T19:41:19.228Z,67.50
2018-06-05T19:44:02.668Z,69.00
2018-06-05T19:46:48.376Z,67.70
2018-06-05T19:49:24.245Z,69.00
2018-06-05T19:51:58.117Z,69.30
2018-06-05T19:57:09.531Z,71.20
2018-06-05T19:59:40.176Z,72.00
2018-06-05T20:02:16.268Z,70.90
2018-06-05T20:04:54.007Z,70.80
2018-06-05T20:07:25.218Z,71.10
2018-06-05T20:10:10.199Z,71.10
2018-06-05T20:12:45.744Z,72.80
2018-06-05T20:15:21.222Z,71.80
2018-06-05T20:17:59.669Z,70.70
2018-06-05T20:20:41.141Z,69.70
2018-06-05T20:23:15.916Z,70.40
2018-06-05T20:25:51.179Z,71.10
2018-06-05T20:31:00.870Z,70.70
2018-06-05T20:33:34.437Z,70.30
2018-06-05T20:36:05.999Z,69.50
2018-06-05T20:38:36.670Z,69.80
2018-06-05T20:41:10.935Z,69.30
2018-06-05T20:43:42.510Z,68.80
2018-06-05T20:46:14.046Z,70.50
2018-06-05T20:48:48.515Z,71.10
2018-06-05T20:51:21.511Z,70.00
2018-06-05T20:53:55.520Z,71.10
2018-06-05T20:56:27.301Z,70.60
2018-06-05T20:59:03.331Z,71.70
2018-06-05T21:01:40.847Z,71.30
2018-06-05T21:04:13.422Z,72.00
2018-06-05T21:06:43.831Z,71.20
2018-06-05T21:09:18.344Z,71.20
2018-06-05T21:11:55.933Z,72.30
2018-06-05T21:14:28.421Z,74.30
2018-06-05T21:17:06.144Z,75.90
2018-06-05T21:19:40.640Z,77.00
2018-06-05T21:22:17.811Z,77.80
2018-06-05T21:24:52.466Z,78.40
2018-06-05T21:27:28.751Z,77.20
2018-06-05T21:30:04.653Z,75.90
2018-06-05T21:32:49.382Z,73.90
2018-06-05T21:35:29.966Z,73.20
2018-06-05T21:38:05.238Z,70.90
2018-06-05T21:40:37.173Z,69.40
2018-06-05T21:43:14.141Z,68.60
2018-06-05T21:45:46.028Z,68.90
2018-06-05T21:48:26.243Z,69.10
2018-06-05T21:51:02.442Z,70.00
2018-06-05T21:53:38.937Z,69.70
2018-06-05T21:56:10.689Z,70.20
2018-06-05T21:58:47.525Z,71.30
2018-06-05T22:01:21.784Z,73.20
2018-06-05T22:03:54.271Z,74.60
2018-06-05T22:06:25.592Z,75.90
2018-06-05T22:09:11.532Z,76.80
2018-06-05T22:11:45.742Z,76.40
2018-06-05T22:14:18.250Z,75.50
2018-06-05T22:19:28.673Z,77.60
2018-06-05T22:21:59.835Z,78.10
2018-06-05T22:24:31.081Z,78.60
2018-06-05T22:27:07.966Z,79.50
2018-06-05T22:29:43.968Z,79.80
2018-06-05T22:32:17.942Z,80.30
2018-06-05T22:34:49.981Z,81.40
2018-06-05T22:37:36.566Z,82.20
2018-06-05T22:40:19.283Z,83.00
2018-06-05T22:43:02.278Z,82.80
2018-06-05T22:45:39.668Z,82.80
2018-06-05T22:48:21.398Z,82.30
2018-06-05T22:51:01.267Z,82.10
2018-06-05T22:53:34.127Z,80.70
2018-06-05T22:56:14.162Z,80.10
2018-06-05T22:58:48.119Z,79.30
2018-06-05T23:01:29.629Z,78.20
2018-06-05T23:04:03.281Z,78.00
2018-06-05T23:06:45.950Z,79.00
2018-06-05T23:09:25.868Z,79.90
2018-06-05T23:12:08.931Z,80.40
2018-06-05T23:14:42.583Z,81.60
2018-06-05T23:17:17.880Z,81.90
2018-06-05T23:19:55.190Z,82.80
2018-06-05T23:22:25.836Z,84.10
2018-06-05T23:25:01.183Z,84.70
2018-06-05T23:27:43.474Z,86.50
2018-06-05T23:30:18.321Z,87.50
2018-06-05T23:32:54.477Z,89.00
2018-06-05T23:35:40.876Z,90.30
2018-06-05T23:38:26.399Z,91.00
2018-06-05T23:41:07.889Z,92.00
2018-06-05T23:43:39.595Z,92.80
2018-06-05T23:46:21.950Z,92.80
2018-06-05T23:48:54.021Z,93.00
2018-06-05T23:51:41.251Z,94.00
2018-06-05T23:54:16.803Z,94.20
2018-06-05T23:56:58.473Z,94.70
2018-06-05T23:59:34.634Z,94.90
